Time;durP1;ratioP1;P1;durP2;ratioP2;P2;SDS_P1;SDS_P2;PMS_P1;PMS_P2;Temp;Humidity;BMP_temperature;BMP_pressure;BME280_temperature;BME280_humidity;BME280_pressure;Samples;Min_cycle;Max_cycle;Signal;HPM_P1;HPM_P2
2024/02/22 00:01:50;;;;;;;317.90;72.10;;;2.40;99.90;4.60;96562.00;;;;5004648;28;20449;-68
2024/02/22 00:04:39;;;;;;;321.57;74.40;;;2.40;99.90;4.60;96558.00;;;;5009117;28;20456;-67
2024/02/22 00:07:28;;;;;;;318.63;73.30;;;2.50;99.90;4.50;96551.00;;;;5008302;28;20791;-67
2024/02/22 00:10:17;;;;;;;326.33;77.77;;;2.60;99.90;4.40;96557.00;;;;5013674;28;20464;-67
2024/02/22 00:13:07;;;;;;;315.53;70.73;;;2.60;99.90;4.80;96559.00;;;;5007704;28;21273;-67
2024/02/22 00:15:56;;;;;;;321.40;74.50;;;2.60;99.90;4.70;96560.00;;;;5006596;28;20445;-68
2024/02/22 00:18:45;;;;;;;317.63;72.83;;;2.60;99.90;4.90;96550.00;;;;5011868;28;20471;-67
2024/02/22 00:21:35;;;;;;;320.67;73.07;;;2.70;99.90;5.10;96550.00;;;;5007088;28;20431;-66
2024/02/22 00:24:24;;;;;;;309.07;78.40;;;2.80;99.90;5.20;96538.00;;;;5006326;28;20460;-67
2024/02/22 00:27:13;;;;;;;322.63;75.23;;;2.80;99.90;4.70;96536.00;;;;5015455;28;20445;-67
2024/02/22 00:30:05;;;;;;;318.40;74.10;;;2.80;99.90;4.10;96519.00;;;;5006592;28;20452;-67
2024/02/22 00:32:54;;;;;;;318.43;73.90;;;2.70;99.90;4.00;96515.00;;;;5005456;28;20464;-68
2024/02/22 00:35:43;;;;;;;317.97;73.47;;;2.60;99.90;4.10;96530.00;;;;5006764;28;20429;-68
2024/02/22 00:38:32;;;;;;;325.27;80.67;;;2.40;99.90;4.00;96512.00;;;;5005627;28;20445;-68
2024/02/22 00:41:21;;;;;;;323.60;76.63;;;2.40;99.90;4.10;96502.00;;;;5007983;28;20970;-68
2024/02/22 00:44:10;;;;;;;336.00;85.43;;;2.40;99.90;2.90;96505.00;;;;5005334;28;20460;-69
2024/02/22 00:47:00;;;;;;;327.17;90.13;;;2.20;99.90;3.30;96492.00;;;;5008643;28;20437;-68
2024/02/22 00:49:50;;;;;;;182.23;82.60;;;2.10;99.90;3.90;96488.00;;;;5006213;28;20436;-67
2024/02/22 00:52:38;;;;;;;110.33;56.43;;;2.10;99.90;4.20;96498.00;;;;5008151;28;20473;-67
2024/02/22 00:55:27;;;;;;;113.33;58.13;;;2.20;99.90;3.60;96488.00;;;;5005309;28;20587;-67
2024/02/22 00:58:16;;;;;;;107.90;57.43;;;2.10;99.90;3.30;96468.00;;;;5007318;28;20448;-67
2024/02/22 01:01:05;;;;;;;117.63;60.23;;;2.00;99.90;4.00;96472.00;;;;5011394;28;20452;-67
2024/02/22 01:03:55;;;;;;;129.50;63.40;;;2.10;99.90;3.90;96476.00;;;;5007109;28;20461;-67
2024/02/22 01:06:44;;;;;;;167.60;67.90;;;2.20;99.90;4.10;96447.00;;;;5012635;28;20976;-67
2024/02/22 01:09:33;;;;;;;179.97;77.17;;;2.20;99.90;4.30;96458.00;;;;5009323;28;20424;-67
2024/02/22 01:12:22;;;;;;;157.20;69.67;;;2.30;99.90;4.00;96444.00;;;;5010624;28;20452;-67
2024/02/22 01:15:11;;;;;;;156.90;67.40;;;2.30;99.90;4.10;96450.00;;;;5012662;28;20481;-67
2024/02/22 01:18:00;;;;;;;149.73;64.53;;;2.30;99.90;3.90;96448.00;;;;5016288;28;20439;-69
2024/02/22 01:20:50;;;;;;;149.10;64.77;;;2.20;99.90;3.50;96437.00;;;;5011791;28;21134;-69
2024/02/22 01:23:39;;;;;;;152.33;61.63;;;2.20;99.90;4.20;96442.00;;;;5011583;28;20444;-68
2024/02/22 01:26:28;;;;;;;153.33;64.73;;;2.20;99.90;4.90;96432.00;;;;5013114;28;20431;-68
2024/02/22 01:29:17;;;;;;;177.13;73.57;;;2.40;99.90;4.70;96430.00;;;;5014294;28;20441;-68
2024/02/22 01:32:07;;;;;;;176.40;68.47;;;2.50;99.90;4.30;96434.00;;;;5019565;28;20499;-68
2024/02/22 01:34:55;;;;;;;144.27;65.80;;;2.50;99.90;4.70;96426.00;;;;5010241;28;20484;-69
2024/02/22 01:37:46;;;;;;;135.50;62.90;;;2.50;99.90;5.00;96419.00;;;;5015473;28;20433;-68
2024/02/22 01:40:35;;;;;;;150.73;66.07;;;2.60;99.90;4.80;96405.00;;;;5008740;28;20444;-68
2024/02/22 01:43:23;;;;;;;161.80;73.10;;;2.80;99.90;4.40;96402.00;;;;5013250;28;20440;-68
2024/02/22 01:46:13;;;;;;;160.40;73.80;;;2.60;99.90;3.50;96379.00;;;;5010543;28;20449;-69
2024/02/22 01:49:02;;;;;;;147.07;66.07;;;2.50;99.90;3.70;96376.00;;;;5007737;28;20440;-65
2024/02/22 01:51:56;;;;;;;147.47;66.53;;;2.30;99.90;3.50;96377.00;;;;5010370;28;20460;-69
2024/02/22 01:54:47;;;;;;;143.47;64.10;;;2.30;99.90;3.50;96376.00;;;;5009968;28;20468;-67
2024/02/22 01:57:37;;;;;;;146.43;63.33;;;2.20;99.90;3.40;96378.00;;;;5016043;28;20451;-67
2024/02/22 02:00:27;;;;;;;144.00;62.90;;;2.10;99.90;4.00;96368.00;;;;5018086;28;20440;-67
2024/02/22 02:03:16;;;;;;;156.47;68.73;;;2.20;99.90;4.20;96366.00;;;;5013525;28;20973;-67
2024/02/22 02:06:05;;;;;;;159.30;68.20;;;2.20;99.90;4.80;96356.00;;;;5011600;28;20958;-67
2024/02/22 02:08:55;;;;;;;168.77;70.43;;;2.30;99.90;4.80;96352.00;;;;5010575;28;20447;-67
2024/02/22 02:11:46;;;;;;;161.63;66.47;;;2.40;99.90;4.00;96346.00;;;;5007490;28;20430;-67
2024/02/22 02:14:35;;;;;;;158.63;68.43;;;2.40;99.90;4.50;96339.00;;;;5013908;28;20472;-66
2024/02/22 02:17:24;;;;;;;167.10;71.50;;;2.50;99.90;4.50;96333.00;;;;5019890;28;20440;-67
2024/02/22 02:20:14;;;;;;;173.03;72.00;;;2.60;99.90;4.30;96323.00;;;;5009038;28;20440;-67
2024/02/22 02:23:21;;;;;;;169.50;67.60;;;2.70;99.90;4.80;96320.00;;;;5013126;28;20429;-67
2024/02/22 02:26:12;;;;;;;178.17;72.73;;;2.80;99.90;4.40;96317.00;;;;5010646;28;20437;-68
2024/02/22 02:29:01;;;;;;;175.93;70.23;;;2.80;99.90;4.20;96307.00;;;;5020181;28;20982;-67
2024/02/22 02:31:50;;;;;;;177.00;68.53;;;2.70;99.90;4.50;96301.00;;;;5007838;28;20430;-67
2024/02/22 02:34:39;;;;;;;173.33;69.40;;;2.70;99.90;4.20;96306.00;;;;5012997;28;20464;-68
2024/02/22 02:37:28;;;;;;;176.67;70.07;;;2.60;99.90;4.70;96303.00;;;;5014217;28;20441;-68
2024/02/22 02:40:17;;;;;;;187.70;76.73;;;2.60;99.90;4.60;96307.00;;;;5012582;28;20805;-67
2024/02/22 02:43:07;;;;;;;184.03;71.07;;;2.70;99.90;4.50;96291.00;;;;5014845;28;20440;-67
2024/02/22 02:45:56;;;;;;;193.93;71.67;;;2.70;99.90;4.40;96288.00;;;;5006533;28;20487;-68
2024/02/22 02:48:45;;;;;;;237.87;76.43;;;2.70;99.90;4.50;96289.00;;;;5013314;28;20441;-66
2024/02/22 02:51:34;;;;;;;230.77;75.63;;;2.70;99.90;4.70;96282.00;;;;5014734;28;20942;-67
2024/02/22 02:54:23;;;;;;;233.73;82.20;;;2.80;99.90;4.80;96275.00;;;;5007795;28;20477;-68
2024/02/22 02:57:11;;;;;;;204.13;75.07;;;2.80;99.90;5.30;96279.00;;;;5009535;28;20456;-67
2024/02/22 03:00:02;;;;;;;229.73;75.27;;;3.00;99.90;5.00;96265.00;;;;5012380;28;20444;-68
2024/02/22 03:02:51;;;;;;;234.93;75.13;;;3.00;99.90;4.50;96256.00;;;;5006698;28;20433;-68
2024/02/22 03:05:40;;;;;;;246.50;76.07;;;2.90;99.90;4.60;96250.00;;;;5005034;28;20872;-67
2024/02/22 03:08:29;;;;;;;251.63;82.63;;;2.90;99.90;4.70;96251.00;;;;5008651;28;20444;-68
2024/02/22 03:11:18;;;;;;;265.33;83.90;;;2.90;99.90;4.80;96247.00;;;;5012588;28;20441;-67
2024/02/22 03:14:09;;;;;;;268.60;83.03;;;2.80;99.90;5.10;96242.00;;;;5009131;28;20510;-67
2024/02/22 03:17:00;;;;;;;295.27;80.90;;;2.90;99.90;5.30;96247.00;;;;5008359;28;20457;-67
2024/02/22 03:19:49;;;;;;;275.50;75.50;;;2.90;99.90;5.40;96236.00;;;;5012459;28;20443;-67
2024/02/22 03:22:38;;;;;;;254.73;77.17;;;3.00;99.90;5.20;96222.00;;;;5015860;28;20535;-67
2024/02/22 03:25:28;;;;;;;255.73;79.03;;;3.00;99.90;4.80;96219.00;;;;5010429;28;20445;-68
2024/02/22 03:28:19;;;;;;;269.57;79.47;;;3.00;99.90;4.00;96204.00;;;;5017467;28;20437;-67
2024/02/22 03:31:09;;;;;;;269.30;76.50;;;2.90;99.90;3.80;96204.00;;;;5009990;28;20833;-68
2024/02/22 03:34:00;;;;;;;286.30;82.47;;;2.70;99.90;5.00;96192.00;;;;5006585;28;20471;-67
2024/02/22 03:36:49;;;;;;;295.83;75.77;;;2.70;99.90;4.10;96195.00;;;;5009241;28;20429;-69
2024/02/22 03:39:39;;;;;;;340.40;129.90;;;2.70;99.90;4.10;96209.00;;;;5006349;28;20452;-66
2024/02/22 03:42:29;;;;;;;273.83;76.50;;;2.60;99.90;5.10;96205.00;;;;5018477;28;21174;-66
2024/02/22 03:45:18;;;;;;;325.03;90.57;;;2.70;99.90;4.90;96209.00;;;;5008262;28;20457;-66
2024/02/22 03:48:08;;;;;;;292.87;84.90;;;2.80;99.90;5.30;96199.00;;;;5013526;28;20524;-66
2024/02/22 03:50:58;;;;;;;304.17;77.27;;;2.90;99.90;5.40;96208.00;;;;5011049;28;20823;-66
2024/02/22 03:53:47;;;;;;;334.47;111.07;;;3.00;99.90;5.40;96198.00;;;;5008906;28;20452;-66
2024/02/22 03:56:37;;;;;;;224.67;77.83;;;3.10;99.90;5.20;96200.00;;;;5008151;28;20472;-66
2024/02/22 03:59:26;;;;;;;263.73;91.50;;;3.10;99.90;5.50;96198.00;;;;5011251;28;20457;-66
2024/02/22 04:02:15;;;;;;;276.30;80.33;;;3.10;99.90;5.70;96190.00;;;;5010085;28;20802;-66
2024/02/22 04:05:04;;;;;;;297.93;76.50;;;3.20;99.90;5.50;96193.00;;;;5015152;28;21183;-66
2024/02/22 04:07:54;;;;;;;334.63;109.07;;;3.30;99.90;5.70;96183.00;;;;5007070;28;20448;-66
2024/02/22 04:10:43;;;;;;;169.80;71.53;;;3.40;99.90;5.40;96191.00;;;;5009815;28;20487;-66
2024/02/22 04:13:32;;;;;;;190.73;75.07;;;3.50;99.90;5.70;96181.00;;;;5009982;28;20459;-66
2024/02/22 04:16:21;;;;;;;242.43;84.73;;;3.40;99.90;4.80;96172.00;;;;5013745;28;20464;-67
2024/02/22 04:19:10;;;;;;;318.63;87.50;;;3.30;99.90;5.50;96173.00;;;;5010662;28;20448;-67
2024/02/22 04:21:59;;;;;;;327.03;86.97;;;3.30;99.90;4.70;96175.00;;;;5011263;28;20432;-68
2024/02/22 04:24:49;;;;;;;321.53;76.63;;;3.20;99.90;4.50;96150.00;;;;5010159;28;20459;-68
2024/02/22 04:27:38;;;;;;;255.20;82.73;;;3.20;99.90;5.00;96159.00;;;;5010368;28;20443;-68
2024/02/22 04:30:26;;;;;;;229.83;81.50;;;3.20;99.90;5.30;96155.00;;;;5004096;28;20437;-68
2024/02/22 04:33:15;;;;;;;215.80;77.17;;;3.20;99.90;5.30;96142.00;;;;5013528;28;20441;-68
2024/02/22 04:36:05;;;;;;;216.03;77.20;;;3.20;99.90;5.60;96145.00;;;;5015922;28;20456;-68
2024/02/22 04:38:54;;;;;;;210.87;79.47;;;3.30;99.90;5.00;96162.00;;;;5014686;28;20945;-68
2024/02/22 04:41:45;;;;;;;192.50;72.13;;;3.30;99.90;5.00;96154.00;;;;5016573;28;20436;-67
2024/02/22 04:44:33;;;;;;;199.50;74.97;;;3.20;99.90;5.40;96141.00;;;;5016409;28;20452;-67
2024/02/22 04:47:22;;;;;;;204.23;77.67;;;3.30;99.90;4.70;96138.00;;;;5017361;28;20437;-69
2024/02/22 04:50:11;;;;;;;212.43;79.97;;;3.20;99.90;5.20;96130.00;;;;5019384;28;20417;-68
2024/02/22 04:53:01;;;;;;;202.50;75.60;;;3.20;99.90;5.30;96126.00;;;;5017086;28;20463;-68
2024/02/22 04:55:50;;;;;;;209.57;74.57;;;3.20;99.90;5.60;96132.00;;;;5012762;28;20464;-68
2024/02/22 04:58:40;;;;;;;216.77;76.67;;;3.30;99.90;5.30;96114.00;;;;5013687;28;20421;-68
2024/02/22 05:01:29;;;;;;;229.50;80.73;;;3.30;99.90;5.70;96122.00;;;;5014573;28;20817;-67
2024/02/22 05:04:18;;;;;;;247.10;86.73;;;3.40;99.90;5.70;96118.00;;;;5012179;28;20467;-68
2024/02/22 05:07:07;;;;;;;244.77;77.47;;;3.40;99.90;5.50;96097.00;;;;5015618;28;20444;-68
2024/02/22 05:09:56;;;;;;;278.97;80.90;;;3.40;99.90;5.30;96107.00;;;;5014151;28;20858;-68
2024/02/22 05:12:45;;;;;;;323.83;77.27;;;3.40;99.90;5.20;96094.00;;;;5010936;28;20433;-68
2024/02/22 05:15:35;;;;;;;319.13;91.93;;;3.40;99.90;5.20;96090.00;;;;5016564;28;20471;-68
2024/02/22 05:18:24;;;;;;;343.90;112.53;;;3.30;99.90;5.20;96091.00;;;;5010029;28;20950;-67
2024/02/22 05:21:12;;;;;;;293.07;84.47;;;3.30;99.90;4.90;96086.00;;;;5011385;28;20440;-67
2024/02/22 05:24:01;;;;;;;273.03;81.50;;;3.20;99.90;4.60;96083.00;;;;5008817;28;20639;-67
2024/02/22 05:26:50;;;;;;;268.07;77.70;;;3.10;99.90;4.80;96073.00;;;;5009397;28;20448;-67
2024/02/22 05:29:39;;;;;;;289.17;81.10;;;3.10;99.90;4.40;96058.00;;;;5014440;28;20432;-67
2024/02/22 05:32:30;;;;;;;305.00;83.07;;;3.00;99.90;5.00;96064.00;;;;5019964;28;20444;-66
2024/02/22 05:35:19;;;;;;;322.83;83.30;;;3.00;99.90;5.60;96074.00;;;;5010004;28;20821;-65
2024/02/22 05:38:08;;;;;;;305.07;74.17;;;3.10;99.90;5.80;96057.00;;;;5016173;28;20443;-66
2024/02/22 05:40:57;;;;;;;296.27;77.67;;;3.20;99.90;5.50;96061.00;;;;5007312;28;20973;-66
2024/02/22 05:43:46;;;;;;;311.13;78.73;;;3.30;99.90;5.20;96059.00;;;;5016166;28;20455;-66
2024/02/22 05:46:35;;;;;;;319.40;75.63;;;3.20;99.90;5.30;96054.00;;;;5019342;28;20424;-67
2024/02/22 05:49:25;;;;;;;340.00;86.47;;;3.30;99.90;4.20;96052.00;;;;5012197;28;20451;-66
2024/02/22 05:52:14;;;;;;;324.80;79.00;;;3.10;99.90;4.80;96052.00;;;;5018940;28;20448;-67
2024/02/22 05:55:03;;;;;;;321.43;74.10;;;3.10;99.90;5.20;96052.00;;;;5010446;28;20460;-67
2024/02/22 05:57:52;;;;;;;325.57;76.10;;;3.10;99.90;5.00;96054.00;;;;5010827;28;20810;-68
2024/02/22 06:00:41;;;;;;;319.80;73.87;;;3.10;99.90;5.40;96057.00;;;;5008607;28;20992;-68
2024/02/22 06:03:30;;;;;;;322.37;75.33;;;3.30;99.90;5.70;96054.00;;;;5010035;28;20438;-68
2024/02/22 06:06:20;;;;;;;329.23;79.07;;;3.20;99.90;5.90;96063.00;;;;5005431;28;20807;-67
2024/02/22 06:09:09;;;;;;;324.80;80.10;;;3.40;99.90;5.70;96054.00;;;;5011373;28;20445;-67
2024/02/22 06:11:58;;;;;;;322.50;74.50;;;3.50;99.90;5.60;96045.00;;;;5010928;28;20444;-67
2024/02/22 06:14:47;;;;;;;321.93;74.87;;;3.40;99.90;5.20;96031.00;;;;5013596;28;20571;-67
2024/02/22 06:17:36;;;;;;;321.77;78.00;;;3.40;99.90;5.20;96025.00;;;;5015054;28;20482;-67
2024/02/22 06:20:24;;;;;;;237.70;91.40;;;3.40;99.90;5.40;96030.00;;;;5013393;28;20445;-66
2024/02/22 06:23:15;;;;;;;153.03;73.37;;;3.40;99.90;5.90;96010.00;;;;5008539;28;20456;-67
2024/02/22 06:26:04;;;;;;;139.03;64.77;;;3.50;99.90;6.20;96013.00;;;;5010470;28;20452;-67
2024/02/22 06:28:53;;;;;;;157.00;74.27;;;3.70;99.90;6.30;96000.00;;;;5013565;28;20440;-66
2024/02/22 06:31:42;;;;;;;141.90;66.30;;;3.80;99.90;6.00;96014.00;;;;5008300;28;20464;-66
2024/02/22 06:34:31;;;;;;;151.90;71.03;;;3.80;99.90;6.00;96012.00;;;;5005635;28;20488;-67
2024/02/22 06:37:20;;;;;;;169.70;85.23;;;3.80;99.90;5.90;96004.00;;;;5017204;28;20457;-66
2024/02/22 06:40:12;;;;;;;156.90;74.27;;;3.80;99.90;5.70;96003.00;;;;5010191;28;20873;-67
2024/02/22 06:43:02;;;;;;;171.17;76.13;;;3.80;99.90;5.20;95998.00;;;;5018358;28;20824;-67
2024/02/22 06:45:51;;;;;;;324.60;190.83;;;3.70;99.90;5.40;96000.00;;;;4966873;28;20444;-66
2024/02/22 06:48:40;;;;;;;180.47;86.77;;;3.70;99.90;5.20;96000.00;;;;4951729;28;20785;-67
2024/02/22 06:51:28;;;;;;;180.17;82.57;;;3.60;99.90;5.10;95992.00;;;;5000088;28;20514;-65
2024/02/22 06:54:17;;;;;;;196.43;93.37;;;3.60;99.90;5.40;95986.00;;;;5009080;28;21004;-66
2024/02/22 06:57:08;;;;;;;158.33;75.63;;;3.60;99.90;5.30;95976.00;;;;5008080;28;20967;-66
2024/02/22 06:59:56;;;;;;;316.43;188.07;;;3.70;99.90;5.10;95977.00;;;;4985075;28;20460;-66
2024/02/22 07:02:45;;;;;;;163.83;80.70;;;3.60;99.90;5.60;95977.00;;;;4998174;28;20588;-66
2024/02/22 07:05:35;;;;;;;167.60;76.10;;;3.70;99.90;6.00;95974.00;;;;5007663;28;20444;-65
2024/02/22 07:08:24;;;;;;;335.73;196.43;;;3.50;99.90;6.60;95971.00;;;;4937258;28;21232;-65
2024/02/22 07:11:13;;;;;;;300.93;166.27;;;3.90;99.90;6.70;95959.00;;;;4941359;28;20577;-65
2024/02/22 07:14:05;;;;;;;332.37;185.90;;;4.10;99.90;6.10;95960.00;;;;4940162;28;20572;-66
2024/02/22 07:16:54;;;;;;;273.83;138.67;;;4.20;99.90;6.40;95970.00;;;;4940958;28;22516;-64
2024/02/22 07:19:44;;;;;;;347.13;187.77;;;4.30;99.90;6.30;95951.00;;;;4942224;28;20453;-65
2024/02/22 07:22:33;;;;;;;322.73;172.30;;;4.30;99.90;6.70;95951.00;;;;4938707;28;21829;-65
2024/02/22 07:25:23;;;;;;;353.33;197.97;;;4.40;99.90;6.90;95944.00;;;;4936594;28;20874;-66
2024/02/22 07:28:14;;;;;;;223.37;99.07;;;4.50;99.90;7.30;95944.00;;;;4962342;28;20425;-66
2024/02/22 07:31:04;;;;;;;210.57;87.90;;;4.70;99.90;7.20;95951.00;;;;4993774;28;20217;-66
2024/02/22 07:33:54;;;;;;;231.93;100.10;;;4.70;99.90;7.20;95938.00;;;;5005761;28;20236;-65
2024/02/22 07:36:43;;;;;;;220.30;91.63;;;4.90;99.90;7.00;95933.00;;;;5001433;28;20217;-65
2024/02/22 07:39:32;;;;;;;229.00;95.77;;;4.90;99.90;7.20;95941.00;;;;5011627;28;20202;-66
2024/02/22 07:42:21;;;;;;;242.27;103.67;;;4.90;99.90;7.40;95936.00;;;;5007455;28;20901;-66
2024/02/22 07:45:11;;;;;;;256.33;153.27;;;5.00;99.90;7.90;95929.00;;;;4999845;28;20457;-66
2024/02/22 07:48:08;;;;;;;173.10;82.40;;;5.20;99.90;7.60;95932.00;;;;5003716;28;20208;-66
2024/02/22 07:50:57;;;;;;;225.87;95.17;;;5.20;99.90;7.60;95931.00;;;;4994687;28;20206;-66
2024/02/22 07:53:46;;;;;;;228.63;96.07;;;5.30;99.90;7.10;95926.00;;;;5012588;28;20233;-66
2024/02/22 07:56:38;;;;;;;225.83;93.17;;;5.30;99.90;7.20;95941.00;;;;5009990;28;20221;-65
2024/02/22 07:59:27;;;;;;;245.80;102.00;;;5.30;99.90;7.70;95940.00;;;;5009750;28;20233;-64
2024/02/22 08:02:16;;;;;;;247.00;102.77;;;5.40;99.90;7.60;95933.00;;;;4992244;28;20210;-64
2024/02/22 08:05:09;;;;;;;227.13;93.93;;;5.40;99.90;7.70;95943.00;;;;5007788;28;20875;-66
2024/02/22 08:07:58;;;;;;;228.87;94.43;;;5.40;99.90;8.20;95948.00;;;;5006377;28;20784;-65
2024/02/22 08:10:47;;;;;;;233.93;94.40;;;5.60;99.90;8.30;95936.00;;;;5010247;28;20689;-66
2024/02/22 08:13:36;;;;;;;239.13;87.97;;;5.70;99.90;8.60;95945.00;;;;5009136;28;20196;-65
2024/02/22 08:16:25;;;;;;;254.87;102.10;;;5.80;99.90;8.10;95931.00;;;;5001680;28;20202;-65
2024/02/22 08:19:14;;;;;;;245.23;99.20;;;5.90;99.90;8.00;95916.00;;;;5009802;28;20240;-65
2024/02/22 08:22:05;;;;;;;249.13;99.33;;;5.80;99.90;8.00;95923.00;;;;5009168;28;20764;-66
2024/02/22 08:24:53;;;;;;;246.27;100.27;;;5.80;99.90;8.00;95910.00;;;;5007000;28;20221;-65
2024/02/22 08:27:42;;;;;;;249.57;97.70;;;5.80;99.90;8.10;95916.00;;;;5003909;28;20202;-65
2024/02/22 08:30:33;;;;;;;248.13;97.80;;;5.80;99.90;8.20;95906.00;;;;5003648;28;20687;-66
2024/02/22 08:33:28;;;;;;;272.63;100.87;;;5.90;99.90;8.40;95909.00;;;;5009922;28;20213;-66
2024/02/22 08:36:17;;;;;;;284.50;102.63;;;5.90;99.90;8.70;95907.00;;;;5006973;28;20756;-66
2024/02/22 08:39:07;;;;;;;268.47;90.43;;;6.10;99.90;8.90;95915.00;;;;5015236;28;20212;-66
2024/02/22 08:41:56;;;;;;;286.87;92.27;;;6.20;99.90;8.70;95908.00;;;;5010101;28;20214;-65
2024/02/22 08:44:45;;;;;;;306.90;97.30;;;6.30;99.90;8.50;95915.00;;;;5001012;28;20260;-65
2024/02/22 08:47:34;;;;;;;295.97;97.60;;;6.20;99.90;8.50;95909.00;;;;5015028;28;20205;-65
2024/02/22 08:50:23;;;;;;;343.43;105.87;;;6.20;99.90;8.60;95912.00;;;;5003408;28;20210;-66
2024/02/22 08:53:12;;;;;;;338.53;96.70;;;6.20;99.90;8.70;95902.00;;;;5012900;28;20214;-65
2024/02/22 08:56:02;;;;;;;343.03;94.80;;;6.40;99.90;8.70;95894.00;;;;5005877;28;20205;-66
2024/02/22 08:58:51;;;;;;;352.53;101.50;;;6.50;99.90;8.70;95899.00;;;;5000387;28;20233;-66
2024/02/22 09:01:40;;;;;;;337.30;95.07;;;6.40;99.90;8.90;95891.00;;;;5011603;28;20205;-66
2024/02/22 09:04:29;;;;;;;354.97;102.23;;;6.40;99.90;8.80;95889.00;;;;5010278;28;20226;-66
2024/02/22 09:07:18;;;;;;;356.33;104.23;;;6.50;99.90;8.70;95880.00;;;;5008972;28;20202;-66
2024/02/22 09:10:09;;;;;;;337.70;90.57;;;6.50;99.90;9.00;95884.00;;;;5007238;28;20280;-66
2024/02/22 09:12:59;;;;;;;336.03;88.47;;;6.50;99.90;9.10;95877.00;;;;5011196;28;20436;-66
2024/02/22 09:15:50;;;;;;;345.77;99.33;;;6.50;99.90;9.00;95869.00;;;;5006731;28;20815;-66
2024/02/22 09:18:39;;;;;;;340.67;92.73;;;6.60;99.90;9.00;95884.00;;;;5014816;28;20460;-66
2024/02/22 09:21:28;;;;;;;354.87;103.10;;;6.60;99.90;9.10;95869.00;;;;5005272;28;20444;-66
2024/02/22 09:24:17;;;;;;;355.53;100.20;;;6.70;99.90;8.90;95877.00;;;;5000001;28;20468;-66
2024/02/22 09:27:06;;;;;;;346.57;98.17;;;6.70;99.90;9.10;95873.00;;;;5011219;28;20449;-66
2024/02/22 09:29:58;;;;;;;343.47;92.53;;;6.70;99.90;9.00;95870.00;;;;5000943;28;20210;-66
2024/02/22 09:32:46;;;;;;;341.90;95.77;;;6.70;99.90;8.80;95885.00;;;;5008921;28;20209;-66
2024/02/22 09:35:37;;;;;;;342.73;94.23;;;6.70;99.90;9.00;95873.00;;;;5003877;28;20230;-65
2024/02/22 09:38:26;;;;;;;360.43;104.97;;;6.70;99.90;9.30;95863.00;;;;5006219;28;20276;-65
2024/02/22 09:41:15;;;;;;;342.37;94.07;;;6.70;99.90;9.20;95867.00;;;;5009871;28;20208;-66
2024/02/22 09:44:05;;;;;;;341.33;92.63;;;6.80;99.90;9.50;95868.00;;;;5008388;28;20453;-65
2024/02/22 09:46:58;;;;;;;339.43;91.20;;;6.80;99.90;9.60;95867.00;;;;5007913;28;20433;-65
2024/02/22 09:49:47;;;;;;;346.87;96.57;;;6.90;99.90;9.50;95875.00;;;;5004198;28;21006;-65
2024/02/22 09:52:35;;;;;;;337.00;92.40;;;6.90;99.90;9.60;95880.00;;;;5016970;28;20629;-65
2024/02/22 09:55:25;;;;;;;354.23;103.47;;;6.90;99.90;9.20;95874.00;;;;5002150;28;20457;-65
2024/02/22 09:58:15;;;;;;;336.93;94.80;;;6.90;99.90;9.40;95880.00;;;;5011813;28;20476;-64
2024/02/22 10:01:04;;;;;;;337.80;99.40;;;6.90;99.90;9.30;95879.00;;;;5005376;28;20587;-65
2024/02/22 10:03:54;;;;;;;343.50;109.07;;;7.00;99.90;9.50;95878.00;;;;5004521;28;20220;-65
2024/02/22 10:06:43;;;;;;;329.00;96.23;;;6.90;99.90;9.70;95874.00;;;;5012925;28;20252;-65
2024/02/22 10:09:44;;;;;;;360.07;113.50;;;7.30;99.90;9.60;95880.00;;;;5011770;28;20302;-65
2024/02/22 10:12:35;;;;;;;349.20;102.97;;;7.10;99.90;9.60;95879.00;;;;5012600;28;20195;-65
2024/02/22 10:15:27;;;;;;;354.23;111.80;;;7.00;99.90;9.60;95869.00;;;;5013156;28;20237;-65
2024/02/22 10:18:25;;;;;;;330.43;95.93;;;7.10;99.90;9.70;95879.00;;;;5012989;28;20233;-65
2024/02/22 10:21:18;;;;;;;345.23;96.43;;;7.10;99.90;9.70;95880.00;;;;5011946;28;20689;-65
2024/02/22 10:24:08;;;;;;;347.67;98.87;;;7.10;99.90;9.70;95877.00;;;;5007328;28;20715;-65
2024/02/22 10:27:04;;;;;;;348.43;98.40;;;7.10;99.90;9.50;95877.00;;;;5011488;28;20217;-65
2024/02/22 10:29:54;;;;;;;348.50;98.77;;;7.10;99.90;9.60;95868.00;;;;5007986;28;20193;-65
2024/02/22 10:32:45;;;;;;;337.03;89.23;;;7.10;99.90;9.60;95872.00;;;;5064463;22;20236;-72
2024/02/22 10:35:35;;;;;;;343.73;90.80;;;7.10;99.90;9.70;95871.00;;;;5040743;28;20204;-72
2024/02/22 10:38:27;;;;;;;357.17;101.50;;;7.10;99.90;9.80;95883.00;;;;5040443;28;20587;-71
2024/02/22 10:41:16;;;;;;;337.97;89.03;;;7.20;99.90;9.50;95885.00;;;;5035346;28;20225;-72
2024/02/22 10:44:05;;;;;;;343.10;95.67;;;7.20;99.90;9.50;95874.00;;;;5025949;28;20666;-73
2024/02/22 10:46:54;;;;;;;340.57;89.90;;;7.10;99.90;9.70;95876.00;;;;5022576;28;20622;-72
2024/02/22 10:49:48;;;;;;;334.67;87.23;;;7.10;99.90;9.60;95877.00;;;;5026799;28;20203;-71
2024/02/22 10:52:40;;;;;;;342.20;108.17;;;7.10;99.90;9.60;95879.00;;;;5036494;28;20459;-72
2024/02/22 10:55:32;;;;;;;335.63;106.60;;;7.10;99.90;9.50;95874.00;;;;5025303;28;20216;-71
2024/02/22 10:58:25;;;;;;;340.90;114.77;;;7.10;99.90;9.10;95877.00;;;;5025518;28;20225;-71
2024/02/22 11:01:16;;;;;;;146.73;80.57;;;7.00;99.90;9.10;95874.00;;;;5025653;28;21006;-71
2024/02/22 11:04:06;;;;;;;161.13;87.07;;;6.90;99.90;9.40;95879.00;;;;5025770;28;20205;-72
2024/02/22 11:06:55;;;;;;;165.07;89.57;;;6.90;99.90;9.50;95869.00;;;;5024370;28;20211;-71
2024/02/22 11:09:47;;;;;;;165.23;85.90;;;6.90;99.90;9.50;95878.00;;;;5024029;28;20193;-71
2024/02/22 11:12:38;;;;;;;158.60;81.07;;;6.90;99.90;9.30;95860.00;;;;5036618;28;20225;-71
2024/02/22 11:15:34;;;;;;;174.53;84.77;;;6.80;99.90;9.40;95859.00;;;;5029789;28;20209;-71
2024/02/22 11:18:24;;;;;;;219.77;101.63;;;6.90;99.90;9.40;95863.00;;;;5029004;28;20232;-71
2024/02/22 11:21:14;;;;;;;339.27;95.33;;;6.90;99.90;9.40;95859.00;;;;5031810;28;20230;-71
2024/02/22 11:24:10;;;;;;;337.90;92.07;;;6.90;99.90;8.90;95849.00;;;;5024765;28;21498;-71
2024/02/22 11:26:59;;;;;;;344.83;106.90;;;6.80;99.90;9.40;95849.00;;;;5020050;28;20433;-71
2024/02/22 11:29:50;;;;;;;241.43;102.20;;;6.80;99.90;9.40;95852.00;;;;5020912;28;20448;-71
2024/02/22 11:32:39;;;;;;;184.20;89.43;;;6.80;99.90;9.40;95830.00;;;;5024658;28;20232;-71
2024/02/22 11:35:28;;;;;;;182.23;89.67;;;6.80;99.90;9.40;95824.00;;;;5026562;28;20603;-71
2024/02/22 11:38:21;;;;;;;176.57;88.37;;;6.80;99.90;9.40;95825.00;;;;5023787;28;20204;-71
2024/02/22 11:41:10;;;;;;;158.47;82.17;;;6.80;99.90;9.50;95818.00;;;;5025442;28;20725;-71
2024/02/22 11:44:04;;;;;;;159.40;86.60;;;6.90;99.90;9.50;95813.00;;;;5025348;28;20204;-70
2024/02/22 11:46:56;;;;;;;139.47;82.03;;;6.90;99.90;9.40;95816.00;;;;5022628;28;20209;-71
2024/02/22 11:49:45;;;;;;;139.07;82.67;;;6.90;99.90;9.20;95806.00;;;;5021505;28;20211;-71
2024/02/22 11:52:34;;;;;;;134.83;85.37;;;6.90;99.90;9.10;95801.00;;;;5022927;28;20221;-71
2024/02/22 11:55:24;;;;;;;132.50;82.20;;;6.80;99.90;9.40;95806.00;;;;5021899;28;20205;-71
2024/02/22 11:58:15;;;;;;;126.13;77.53;;;6.80;99.90;9.10;95800.00;;;;5018326;28;20220;-71
2024/02/22 12:01:04;;;;;;;124.97;86.43;;;6.80;99.90;9.00;95785.00;;;;5021356;28;20727;-71
2024/02/22 12:03:56;;;;;;;143.87;94.27;;;6.80;99.90;9.00;95781.00;;;;5017369;28;20213;-70
2024/02/22 12:06:46;;;;;;;121.20;81.00;;;6.80;99.90;9.10;95765.00;;;;5022515;28;20202;-71
2024/02/22 12:09:35;;;;;;;144.13;89.17;;;6.70;99.90;9.20;95759.00;;;;5014185;28;20248;-70
2024/02/22 12:12:25;;;;;;;131.23;85.23;;;6.70;99.90;9.00;95752.00;;;;5029464;28;20232;-70
2024/02/22 12:15:19;;;;;;;125.63;83.80;;;6.70;99.90;9.40;95739.00;;;;5020406;28;20320;-70
2024/02/22 12:18:09;;;;;;;119.67;78.20;;;6.80;99.90;9.00;95746.00;;;;5027303;28;20862;-70
2024/02/22 12:20:59;;;;;;;122.57;86.20;;;6.80;99.90;9.10;95729.00;;;;5028192;28;20687;-71
2024/02/22 12:23:48;;;;;;;135.97;86.27;;;6.80;99.90;9.10;95722.00;;;;5019449;28;20212;-71